M I D A S
Marine Information and Data Acquisition System
Tripno 448 of the Zeeleeuw from 2003-03-19 07:25:30 to 2003-03-19 14:17:29
Back to CruiseResearch ActivitiesStationsMapUnderway DataData graphs

EquipmentUnitsComment
TimeDGPSUTC
LatitudeDGPSDM.mWGS84
LongitudeDGPSDM.mWGS84
HeadingGyrodeg 
SOGDGPSknotsSpeed over ground
COGDGPSdegCourse over ground
DepthEcho soundermeters200 kHz
Missing or incorrect values are displayed as -999
Navigation data collected by the RV Zeeleeuw from 2003-03-19 07:25:30 to 2003-03-19 14:17:29
Time Latitude Longitude Heading SOG COG Depth
2003-03-19 07:26:32 51°13.599 2°56.105 119 0.1 155 5.8
2003-03-19 07:27:34 51°13.598 2°56.104 112.5 0.1 322 5.9
2003-03-19 07:28:34 51°13.609 2°56.048 112.2 3.7 290 -999
2003-03-19 07:29:34 51°13.621 2°55.984 114.2 1.7 288 7.5
2003-03-19 07:30:34 51°13.641 2°55.92 121.6 4 297 -999
2003-03-19 07:31:34 51°13.674 2°55.814 118.6 4.4 297 -999
2003-03-19 07:32:34 51°13.696 2°55.727 104.3 2.3 286 8.2
2003-03-19 07:33:34 51°13.702 2°55.717 67.5 1.1 52 9
2003-03-19 07:34:34 51°13.704 2°55.71 39.3 1.3 233 -999
2003-03-19 07:35:34 51°13.713 2°55.7 357.3 1.6 347 7.4
2003-03-19 07:36:33 51°13.766 2°55.666 343.3 5.3 339 8.2
2003-03-19 07:37:34 51°13.876 2°55.592 342.2 7.8 337 4.7
2003-03-19 07:38:33 51°13.993 2°55.511 340.2 8.5 336 7.9
2003-03-19 07:39:33 51°14.115 2°55.423 339.3 8.1 334 4.7
2003-03-19 07:40:33 51°14.236 2°55.302 325.8 8.3 322 5
2003-03-19 07:41:33 51°14.328 2°55.14 310.4 8.2 307 4.8
2003-03-19 07:42:34 51°14.394 2°54.905 288.7 10.6 283 8.6
2003-03-19 07:43:34 51°14.379 2°54.58 266.2 13.2 260 8.2
2003-03-19 07:44:34 51°14.323 2°54.231 265.1 13.8 258 6.9
2003-03-19 07:45:34 51°14.249 2°53.885 245.1 14.1 240 7
2003-03-19 07:46:32 51°14.153 2°53.561 266.2 14.2 258 7.3
2003-03-19 07:47:33 51°14.068 2°53.2 244.2 14.6 239 7.8
2003-03-19 07:48:32 51°13.941 2°52.868 246 15.1 241 8.2
2003-03-19 07:49:34 51°13.815 2°52.506 242.3 15.2 238 8.4
2003-03-19 07:50:34 51°13.696 2°52.153 245.3 15.2 240 8.5
2003-03-19 07:51:34 51°13.567 2°51.808 245.1 15.1 240 8.6
2003-03-19 07:52:34 51°13.444 2°51.46 245.9 15.1 241 8.9
2003-03-19 07:53:34 51°13.321 2°51.113 245.3 15.1 240 9
2003-03-19 07:54:34 51°13.198 2°50.763 245.2 15.1 240 9.1
2003-03-19 07:55:34 51°13.075 2°50.413 245 15.2 240 9.3
2003-03-19 07:56:34 51°12.95 2°50.063 244.7 15.3 240 9.4
2003-03-19 07:57:34 51°12.825 2°49.706 245.1 15.5 241 9.6
2003-03-19 07:58:34 51°12.7 2°49.347 245.3 15.5 241 9.7
2003-03-19 07:59:34 51°12.575 2°48.99 245.8 15.4 241 9.9
2003-03-19 08:00:34 51°12.452 2°48.633 245.3 15.3 241 10
2003-03-19 08:01:34 51°12.326 2°48.28 244.9 15.3 240 10.1
2003-03-19 08:02:34 51°12.202 2°47.926 245.5 15.5 241 10.2
2003-03-19 08:03:34 51°12.078 2°47.566 245.6 15.5 241 10.3
2003-03-19 08:04:34 51°11.953 2°47.205 245.4 15.5 241 10.1
2003-03-19 08:05:33 51°11.833 2°46.85 247.4 15.5 243 10.2
2003-03-19 08:06:33 51°11.717 2°46.484 247.7 15.5 243 10.2
2003-03-19 08:07:34 51°11.598 2°46.112 247.4 15.4 243 10.1
2003-03-19 08:08:34 51°11.483 2°45.748 247.4 15.4 243 9.8
2003-03-19 08:09:33 51°11.37 2°45.39 247.2 15.3 243 9.6
2003-03-19 08:10:34 51°11.254 2°45.022 247.1 15.2 243 9.4
2003-03-19 08:11:34 51°11.142 2°44.663 247.5 15.1 244 9.1
2003-03-19 08:12:34 51°11.03 2°44.306 246.9 15 243 8.9
2003-03-19 08:13:34 51°10.919 2°43.952 248 14.9 244 8.6
2003-03-19 08:14:34 51°10.806 2°43.602 246.5 14.8 242 8.3
2003-03-19 08:15:34 51°10.7 2°43.252 247.5 14.6 243 8.1
2003-03-19 08:16:34 51°10.663 2°42.886 280.4 14.2 273 8.6
2003-03-19 08:17:34 51°10.631 2°42.501 256.4 14.9 251 9
2003-03-19 08:18:34 51°10.485 2°42.188 228.6 14.7 227 8.4
2003-03-19 08:19:34 51°10.36 2°41.859 243.6 14.5 240 8.1
2003-03-19 08:20:34 51°10.235 2°41.531 243.6 14.5 240 7.8
2003-03-19 08:21:34 51°10.123 2°41.194 244.8 14.4 241 7.8
2003-03-19 08:22:34 51°9.998 2°40.871 242.5 14.3 239 7.7
2003-03-19 08:23:34 51°9.895 2°40.529 249.7 14.4 246 7.8
2003-03-19 08:24:34 51°9.783 2°40.194 242.6 14.4 239 7.7
2003-03-19 08:25:34 51°9.674 2°39.857 249.6 14.3 246 7.7
2003-03-19 08:26:34 51°9.57 2°39.515 246.7 14.4 243 7.7
2003-03-19 08:27:34 51°9.468 2°39.172 246.8 14.4 243 7.7
2003-03-19 08:28:34 51°9.361 2°38.834 248.5 14.2 245 7.7
2003-03-19 08:29:34 51°9.256 2°38.494 247.4 14.3 243 7.6
2003-03-19 08:30:34 51°9.149 2°38.156 246.5 14.3 243 7.6
2003-03-19 08:31:34 51°9.037 2°37.84 242.4 13.3 239 7.6
2003-03-19 08:32:34 51°8.973 2°37.522 261.1 12.4 256 7.3
2003-03-19 08:33:33 51°8.988 2°37.231 317.2 10.9 306 7.7
2003-03-19 08:34:34 51°9.115 2°37.223 39.5 6 30 9
2003-03-19 08:35:34 51°9.134 2°37.258 87.5 0.3 154 9
2003-03-19 08:36:34 51°9.12 2°37.257 94.3 0.6 169 8.9
2003-03-19 08:37:34 51°9.115 2°37.261 77.1 0.4 161 8.9
2003-03-19 08:38:34 51°9.114 2°37.26 55.3 0.1 290 8.9
2003-03-19 08:39:34 51°9.116 2°37.257 46.6 0.3 333 8.9
2003-03-19 08:40:34 51°9.121 2°37.252 45.6 0.3 307 8.9
2003-03-19 08:41:33 51°9.122 2°37.244 49.1 0.3 278 9
2003-03-19 08:42:34 51°9.122 2°37.234 52.5 0.4 261 9
2003-03-19 08:43:33 51°9.12 2°37.222 58.3 0.5 245 9
2003-03-19 08:44:33 51°9.116 2°37.212 65.3 0.6 232 9
2003-03-19 08:45:33 51°9.111 2°37.2 71 0.6 231 9
2003-03-19 08:46:34 51°9.103 2°37.192 75.4 0.5 210 9
2003-03-19 08:47:34 51°9.098 2°37.187 75.4 0.4 196 9
2003-03-19 08:48:33 51°9.093 2°37.185 61.2 0.2 232 9
2003-03-19 08:49:33 51°9.094 2°37.179 44.8 0.4 307 9
2003-03-19 08:50:33 51°9.1 2°37.167 35.5 0.6 309 9.1
2003-03-19 08:51:32 51°9.105 2°37.153 33.3 0.7 304 9.1
2003-03-19 08:52:33 51°9.109 2°37.136 34.5 0.7 291 9.2
2003-03-19 08:53:32 51°9.112 2°37.125 47.8 0.4 318 9.2
2003-03-19 08:54:32 51°9.115 2°37.125 70.1 0.2 108 9.3
2003-03-19 08:55:34 51°9.11 2°37.134 93.6 0.8 145 9.2
2003-03-19 08:56:34 51°9.092 2°37.143 117.9 1.3 166 9
2003-03-19 08:57:32 51°9.067 2°37.148 142.9 1.9 179 8.9
2003-03-19 08:58:33 51°9.03 2°37.137 173.9 2.8 192 8.7
2003-03-19 08:59:33 51°8.993 2°37.102 203.9 2.7 217 8.3
2003-03-19 09:00:33 51°8.962 2°37.05 233 2.8 233 8.2
2003-03-19 09:01:33 51°8.94 2°36.983 261.6 2.8 250 8.1
2003-03-19 09:02:32 51°8.931 2°36.915 287.3 2.6 264 8.2
2003-03-19 09:03:33 51°8.933 2°36.849 309.4 2.4 276 8
2003-03-19 09:04:32 51°8.954 2°36.771 318.5 6 302 8.4
2003-03-19 09:05:34 51°9.013 2°36.519 288.3 12.1 280 9.6
2003-03-19 09:06:32 51°8.996 2°36.185 267.1 13.6 261 11.5
2003-03-19 09:07:32 51°8.966 2°35.826 268.8 13.8 263 13.4
2003-03-19 09:08:34 51°8.939 2°35.449 270.2 13.9 264 15
2003-03-19 09:09:34 51°8.915 2°35.082 271.3 13.9 264 15.3
2003-03-19 09:10:34 51°8.895 2°34.719 272 13.7 265 15.5
2003-03-19 09:11:34 51°8.877 2°34.362 272.7 13.5 266 15.2
2003-03-19 09:12:34 51°8.861 2°34.007 272.9 13.4 266 15
2003-03-19 09:13:34 51°8.844 2°33.65 272.4 13.5 265 15.4
2003-03-19 09:14:34 51°8.823 2°33.321 273.2 10.9 263 17.3
2003-03-19 09:15:34 51°8.809 2°33.104 283 6.9 267 17.5
2003-03-19 09:16:33 51°8.817 2°32.96 305.5 4.7 282 17.7
2003-03-19 09:17:34 51°8.839 2°32.863 325 3.3 297 17.8
2003-03-19 09:18:35 51°8.866 2°32.805 340.5 2.5 309 18
2003-03-19 09:19:35 51°8.89 2°32.759 345.8 2.2 312 18
2003-03-19 09:20:34 51°8.914 2°32.716 344.7 2.2 310 17.8
2003-03-19 09:21:35 51°8.937 2°32.669 342.1 2.2 306 17.4
2003-03-19 09:22:35 51°8.955 2°32.621 339.6 2.2 301 16.3
2003-03-19 09:23:34 51°8.973 2°32.573 349 2 305 14.9
2003-03-19 09:24:33 51°8.991 2°32.54 7.3 1.6 315 13.6
2003-03-19 09:25:34 51°9.006 2°32.522 25.7 0.9 334 12.7
2003-03-19 09:26:35 51°9.016 2°32.519 44.2 0.5 11 12.3
2003-03-19 09:27:35 51°9.022 2°32.53 65.2 0.7 75 12.3
2003-03-19 09:28:34 51°9.02 2°32.555 89.4 1.2 89 12.9
2003-03-19 09:29:34 51°9 2°32.583 117.7 1.7 144 14.2
2003-03-19 09:30:35 51°8.968 2°32.598 148.5 2.4 174 15.7
2003-03-19 09:31:33 51°8.933 2°32.605 127.1 1.8 169 17
2003-03-19 09:32:33 51°8.912 2°32.618 95.8 1 148 17.6
2003-03-19 09:33:33 51°8.906 2°32.627 66.3 0.3 108 17.8
2003-03-19 09:34:33 51°8.91 2°32.626 35.6 0.6 328 17.7
2003-03-19 09:35:34 51°8.941 2°32.619 19.8 3.7 1 16.8
2003-03-19 09:36:34 51°9.01 2°32.644 31.7 4.1 16 15
2003-03-19 09:37:35 51°9.07 2°32.676 33.5 3.6 25 13.1
2003-03-19 09:38:34 51°9.107 2°32.72 54.9 1.9 54 12.5
2003-03-19 09:39:35 51°9.12 2°32.742 45 0.8 46 12.3
2003-03-19 09:40:35 51°9.127 2°32.754 51.2 0.6 49 12.3
2003-03-19 09:41:34 51°9.129 2°32.769 52.8 0.5 77 12.4
2003-03-19 09:42:33 51°9.134 2°32.774 37.5 0.3 33 12.4
2003-03-19 09:43:34 51°9.137 2°32.775 34.8 0.1 12 12.4
2003-03-19 09:44:34 51°9.138 2°32.776 43.4 0.1 128 12.4
2003-03-19 09:45:34 51°9.135 2°32.778 53.1 0.2 156 12.5
2003-03-19 09:46:35 51°9.131 2°32.777 49.4 0.2 183 12.6
2003-03-19 09:47:34 51°9.127 2°32.777 42 0.2 206 12.8
2003-03-19 09:48:35 51°9.124 2°32.777 36.8 0.3 203 12.9
2003-03-19 09:49:34 51°9.119 2°32.77 32.6 0.3 223 13
2003-03-19 09:50:34 51°9.117 2°32.765 26.6 0.3 229 13
2003-03-19 09:51:34 51°9.113 2°32.755 20.3 0.4 246 13
2003-03-19 09:52:35 51°9.108 2°32.746 19.6 0.4 245 13
2003-03-19 09:53:34 51°9.108 2°32.734 26.5 0.3 265 12.9
2003-03-19 09:54:33 51°9.106 2°32.732 37 0.2 257 12.9
2003-03-19 09:55:34 51°9.105 2°32.731 47.4 0.1 164 13
2003-03-19 09:56:34 51°9.103 2°32.734 50.2 0.2 127 13.1
2003-03-19 09:57:35 51°9.101 2°32.74 50 0.3 113 13.3
2003-03-19 09:58:33 51°9.103 2°32.758 69.9 1 88 13.6
2003-03-19 09:59:34 51°9.101 2°32.792 83.3 1.4 104 14.4
2003-03-19 10:00:34 51°9.093 2°32.831 96.2 1.7 112 15.5
2003-03-19 10:01:35 51°9.075 2°32.874 107.3 1.9 124 16.7
2003-03-19 10:02:34 51°9.05 2°32.909 119 1.9 141 17.4
2003-03-19 10:03:34 51°9.022 2°32.936 128 2 155 18
2003-03-19 10:04:34 51°8.992 2°32.952 134.3 1.9 164 18.3
2003-03-19 10:05:35 51°8.959 2°32.964 138.5 1.8 170 18.5
2003-03-19 10:06:35 51°8.929 2°32.97 144.5 1.9 177 18.6
2003-03-19 10:07:34 51°8.898 2°32.966 168.7 2.1 189 18.6
2003-03-19 10:08:35 51°8.864 2°32.944 196.2 2.3 208 18.7
2003-03-19 10:09:35 51°8.832 2°32.908 214.1 2.4 219 18.6
2003-03-19 10:10:34 51°8.8 2°32.865 214.9 2.6 221 18.7
2003-03-19 10:11:34 51°8.765 2°32.821 210.7 2.6 218 18.8
2003-03-19 10:12:35 51°8.73 2°32.78 204.6 2.7 214 19.1
2003-03-19 10:13:34 51°8.692 2°32.746 198.9 2.6 209 19.1
2003-03-19 10:14:35 51°8.652 2°32.714 201.8 2.7 211 19.2
2003-03-19 10:15:34 51°8.617 2°32.672 216 2.7 220 19.6
2003-03-19 10:16:35 51°8.586 2°32.625 227.4 2.4 227 19.6
2003-03-19 10:17:34 51°8.564 2°32.58 238 2.2 232 19.5
2003-03-19 10:18:35 51°8.541 2°32.538 247.9 2 239 19.3
2003-03-19 10:19:34 51°8.532 2°32.491 260.1 1.8 247 19.2
2003-03-19 10:20:35 51°8.521 2°32.448 273.3 1.6 253 19
2003-03-19 10:21:34 51°8.516 2°32.411 286.2 1.4 259 19.2
2003-03-19 10:22:35 51°8.514 2°32.373 299.5 1.3 265 19.5
2003-03-19 10:23:34 51°8.515 2°32.338 312 1.1 269 19.5
2003-03-19 10:24:35 51°8.513 2°32.313 322.2 1 272 19.5
2003-03-19 10:25:34 51°8.515 2°32.29 332.3 0.9 276 19.6
2003-03-19 10:26:35 51°8.516 2°32.268 340.7 0.8 277 19.5
2003-03-19 10:27:34 51°8.517 2°32.249 347.6 0.7 279 19.4
2003-03-19 10:28:35 51°8.52 2°32.232 354.2 0.6 279 19.4
2003-03-19 10:29:34 51°8.517 2°32.215 0.9 0.5 282 19.4
2003-03-19 10:30:35 51°8.519 2°32.202 7.2 0.5 286 19.4
2003-03-19 10:31:34 51°8.521 2°32.191 11.7 0.4 279 19.5
2003-03-19 10:32:35 51°8.522 2°32.178 17.1 0.3 298 19.5
2003-03-19 10:33:34 51°8.524 2°32.173 28.5 0.3 337 19.5
2003-03-19 10:34:35 51°8.53 2°32.173 46.2 0.2 38 19.6
2003-03-19 10:35:34 51°8.537 2°32.179 38.4 0.9 33 19.6
2003-03-19 10:36:35 51°8.565 2°32.174 342.6 2.6 334 19.7
2003-03-19 10:37:35 51°8.582 2°32.082 259.3 4.2 256 19.4
2003-03-19 10:38:35 51°8.522 2°32.034 175.1 4.2 179 19.6
2003-03-19 10:39:34 51°8.484 2°32.111 93.6 4 96 19.6
2003-03-19 10:40:35 51°8.5 2°32.225 78.9 4.1 77 20
2003-03-19 10:41:35 51°8.511 2°32.316 83.6 3.1 83 20.1
2003-03-19 10:42:35 51°8.512 2°32.341 82.4 0.2 148 20.1
2003-03-19 10:43:34 51°8.511 2°32.353 76.8 0.6 104 20.1
2003-03-19 10:44:35 51°8.513 2°32.375 58.7 0.9 69 20.2
2003-03-19 10:45:34 51°8.523 2°32.394 32.2 1.1 39 20
2003-03-19 10:46:35 51°8.537 2°32.404 7.2 0.9 11 20.1
2003-03-19 10:47:34 51°8.553 2°32.403 342.4 0.9 345 20.1
2003-03-19 10:48:35 51°8.564 2°32.391 319.1 0.8 318 20.2
2003-03-19 10:49:34 51°8.572 2°32.374 297.3 0.8 292 20.3
2003-03-19 10:50:34 51°8.575 2°32.356 277.9 0.7 280 20.3
2003-03-19 10:51:34 51°8.576 2°32.336 259.8 0.7 259 20.4
2003-03-19 10:52:35 51°8.569 2°32.322 241.5 0.7 233 20.3
2003-03-19 10:53:35 51°8.562 2°32.31 223.1 0.7 209 20.6
2003-03-19 10:54:35 51°8.549 2°32.305 212.5 0.8 191 20.4
2003-03-19 10:55:35 51°8.537 2°32.296 226.1 0.8 206 20.5
2003-03-19 10:56:34 51°8.53 2°32.291 217.1 0.8 194 20.5
2003-03-19 10:57:34 51°8.517 2°32.29 206.1 0.8 183 20.7
2003-03-19 10:58:34 51°8.502 2°32.289 213.2 0.8 188 20.9
2003-03-19 10:59:35 51°8.489 2°32.286 205.8 0.8 181 21
2003-03-19 11:00:35 51°8.475 2°32.289 203.3 0.8 183 21
2003-03-19 11:01:33 51°8.462 2°32.293 208.7 0.7 177 21.1
2003-03-19 11:02:35 51°8.451 2°32.295 219.5 0.5 183 21
2003-03-19 11:03:35 51°8.444 2°32.297 232.5 0.3 181 21.1
2003-03-19 11:04:35 51°8.441 2°32.296 247.1   264 21.1
2003-03-19 11:05:34 51°8.443 2°32.296 262.8 0.2   21.1
2003-03-19 11:06:35 51°8.448 2°32.296 271.8 0.3 1 21.2
2003-03-19 11:07:35 51°8.455 2°32.297 276.6 0.5 13 21.3
2003-03-19 11:08:35 51°8.46 2°32.301 275.9 0.5 20 21.3
2003-03-19 11:09:35 51°8.468 2°32.308 275.3 0.4 24 21.3
2003-03-19 11:10:35 51°8.476 2°32.314 275.7 0.6 28 21.3
2003-03-19 11:11:35 51°8.484 2°32.322 275.5 0.6 35 21.3
2003-03-19 11:12:34 51°8.494 2°32.331 274.4 0.7 33 21.3
2003-03-19 11:13:35 51°8.505 2°32.343 274.6 0.6 38 21.3
2003-03-19 11:14:34 51°8.513 2°32.353 273.1 0.7 40 21.4
2003-03-19 11:15:35 51°8.522 2°32.367 271.5 0.7 42 21.4
2003-03-19 11:16:35 51°8.525 2°32.349 255.4 2.8 259 21.5
2003-03-19 11:17:34 51°8.465 2°32.263 220.6 6.1 212 21.7
2003-03-19 11:18:35 51°8.37 2°32.163 221.7 6.9 214 21.8
2003-03-19 11:19:34 51°8.274 2°32.065 222.1 7 214 22.1
2003-03-19 11:20:35 51°8.175 2°31.963 222.1 6.9 213 22.1
2003-03-19 11:21:35 51°8.079 2°31.863 222.7 6.9 213 22.4
2003-03-19 11:22:34 51°7.986 2°31.766 222.6 6.8 213 21.7
2003-03-19 11:23:35 51°7.89 2°31.665 222 6.8 214 21.5
2003-03-19 11:24:34 51°7.799 2°31.566 222 6.8 214 21.9
2003-03-19 11:25:35 51°7.701 2°31.467 222 6.9 213 21
2003-03-19 11:26:34 51°7.606 2°31.375 219.2 6.8 209 18.3
2003-03-19 11:27:35 51°7.504 2°31.29 219.2 6.8 208 16.1
2003-03-19 11:28:34 51°7.405 2°31.208 219.1 6.8 208 14.8
2003-03-19 11:29:34 51°7.301 2°31.13 215.5 6.9 204 14.7
2003-03-19 11:30:34 51°7.193 2°31.058 212.5 7.1 200 13.8
2003-03-19 11:31:35 51°7.08 2°30.99 210.4 7.3 199 12.9
2003-03-19 11:32:35 51°6.96 2°30.944 201.2 7.6 189 11.9
2003-03-19 11:33:35 51°6.831 2°30.948 182.6 8 170 11.5
2003-03-19 11:34:35 51°6.7 2°30.977 189.7 7.8 176 10.9
2003-03-19 11:35:35 51°6.572 2°30.99 190.4 7.7 176 10.3
2003-03-19 11:36:35 51°6.444 2°31.015 179 7.9 164 12.7
2003-03-19 11:37:34 51°6.353 2°31.179 126.3 9.1 113 15.3
2003-03-19 11:38:34 51°6.355 2°31.428 84.8 9.9 78 15
2003-03-19 11:39:35 51°6.398 2°31.695 84.2 10.3 77 14.7
2003-03-19 11:40:35 51°6.445 2°31.959 75.8 10.4 71 13.9
2003-03-19 11:41:34 51°6.504 2°32.212 72.5 10.5 68 13.1
2003-03-19 11:42:35 51°6.577 2°32.452 63 9.2 61 13.1
2003-03-19 11:43:34 51°6.642 2°32.651 66.5 8.3 64 13.3
2003-03-19 11:44:35 51°6.725 2°32.8 27 7.1 37 13.6
2003-03-19 11:45:35 51°6.805 2°32.825 325.8 4.1 354 13.6
2003-03-19 11:46:34 51°6.84 2°32.789 266.8 1.6 289 13.4
2003-03-19 11:47:34 51°6.832 2°32.76 245.5 1.1 231 13.4
2003-03-19 11:48:33 51°6.825 2°32.74 251.9 0.8 245 13.6
2003-03-19 11:49:35 51°6.826 2°32.737 261.8 0.6 50 13.6
2003-03-19 11:50:35 51°6.835 2°32.751 269.8 0.7 31 13.4
2003-03-19 11:51:35 51°6.847 2°32.757 276.2 0.8 20 13.2
2003-03-19 11:52:35 51°6.86 2°32.765 270.7 0.7 5 12.9
2003-03-19 11:53:35 51°6.865 2°32.766 249.6 0.1 29 12.6
2003-03-19 11:54:33 51°6.86 2°32.772 223.3 0.8 149 13
2003-03-19 11:55:35 51°6.842 2°32.791 210.2 1.5 148 13.6
2003-03-19 11:56:35 51°6.818 2°32.804 219.9 1.4 170 13.8
2003-03-19 11:57:34 51°6.791 2°32.772 247.3 3 240 13.8
2003-03-19 11:58:34 51°6.79 2°32.663 273.1 4 280 13.9
2003-03-19 11:59:35 51°6.803 2°32.627 261.6 0.6 16 13.7
2003-03-19 12:00:34 51°6.812 2°32.635 264.3 0.7 31 13.4
2003-03-19 12:01:35 51°6.82 2°32.649 247.6 0.7 62 13.5
2003-03-19 12:02:35 51°6.823 2°32.667 243.2 0.7 70 13.4
2003-03-19 12:03:34 51°6.826 2°32.682 247.2 0.6 74 13.5
2003-03-19 12:04:34 51°6.829 2°32.698 241.3 0.6 75 13.6
2003-03-19 12:05:35 51°6.829 2°32.712 244 0.4 81 13.5
2003-03-19 12:06:35 51°6.83 2°32.719 244.3 0.3 83 13.6
2003-03-19 12:07:34 51°6.829 2°32.725 238.7 0.3 134 13.7
2003-03-19 12:08:35 51°6.827 2°32.73 240.8 0.2 166 13.7
2003-03-19 12:09:35 51°6.824 2°32.729 243.1 0.2 201 13.7
2003-03-19 12:10:34 51°6.822 2°32.726 242.3 0.2 205 13.7
2003-03-19 12:11:34 51°6.818 2°32.724 243.8 0.2 221 13.8
2003-03-19 12:12:34 51°6.816 2°32.721 247.2 0.2 249 13.8
2003-03-19 12:13:35 51°6.816 2°32.716 246.5 0.2 244 13.8
2003-03-19 12:14:35 51°6.803 2°32.688 239.2 3.7 233 13.8
2003-03-19 12:15:35 51°6.715 2°32.528 237.1 10.6 231 14
2003-03-19 12:16:34 51°6.601 2°32.291 242.9 11.8 239 13.7
2003-03-19 12:17:35 51°6.526 2°31.999 258.8 11.8 257 14.5
2003-03-19 12:18:35 51°6.48 2°31.693 261.1 12.1 260 14.7
2003-03-19 12:19:35 51°6.45 2°31.374 264.9 12.2 263 14.7
2003-03-19 12:20:35 51°6.428 2°31.068 266.8 10.9 264 13.6
2003-03-19 12:21:35 51°6.495 2°30.825 326 10.9 327 10.8
2003-03-19 12:22:35 51°6.691 2°30.87 12.2 12.6 12 11.4
2003-03-19 12:23:34 51°6.895 2°30.951 13.3 13.3 13 12
2003-03-19 12:24:35 51°7.115 2°31.127 38.5 15.1 36 13.1
2003-03-19 12:25:34 51°7.303 2°31.391 50.1 15.5 47 14.4
2003-03-19 12:26:34 51°7.502 2°31.651 41 15.5 38 15.2
2003-03-19 12:27:35 51°7.677 2°31.965 55.1 15.7 51 16.7
2003-03-19 12:28:34 51°7.84 2°32.281 52.9 15.7 50 18.6
2003-03-19 12:29:35 51°8.02 2°32.593 47.9 15.6 45 19.7
2003-03-19 12:30:35 51°8.126 2°32.824 95.1 8.9 82 20.2
2003-03-19 12:31:35 51°8.075 2°32.954 178.7 4.1 147 19.4
2003-03-19 12:32:34 51°8.06 2°32.981 227.7 1.3 65 19.3
2003-03-19 12:33:34 51°8.062 2°32.981 245.9 0.2 331 19.3
2003-03-19 12:34:35 51°8.061 2°32.985 231.1 0.2 95 19.3
2003-03-19 12:35:35 51°8.061 2°32.991 228.9 0.3 102 19.2
2003-03-19 12:36:35 51°8.063 2°32.998 241.8 0.2 19 19.3
2003-03-19 12:37:35 51°8.066 2°32.998 245.1 0.3   19.2
2003-03-19 12:38:35 51°8.071 2°32.997 236.4 0.2 43 19.3
2003-03-19 12:39:34 51°8.072 2°33.006 239.7 0.2 32 19.3
2003-03-19 12:40:35 51°8.077 2°33.006 237.1 0.3 31 19.4
2003-03-19 12:41:34 51°8.081 2°33.01 246.2 0.4 9 19.4
2003-03-19 12:42:34 51°8.091 2°33.008 266.2 0.8 356 19.5
2003-03-19 12:43:35 51°8.101 2°33.01 251.1 0.4 13 19.6
2003-03-19 12:44:35 51°8.102 2°33.02 222.2 0.6 93 19.5
2003-03-19 12:45:34 51°8.098 2°33.044 206.1 1 114 19.5
2003-03-19 12:46:35 51°8.09 2°33.07 204.7 1 115 19.4
2003-03-19 12:47:35 51°8.081 2°33.093 208.2 0.9 122 19.1
2003-03-19 12:48:35 51°8.068 2°33.078 248.4 1.5 246 18.9
2003-03-19 12:49:35 51°8.064 2°33.021 257.2 2.6 263 19.2
2003-03-19 12:50:35 51°8.062 2°32.983 242.2 0.4 33 19.4
2003-03-19 12:51:35 51°8.061 2°32.98 237.7 0.2 173 19.3
2003-03-19 12:52:34 51°8.061 2°32.983 242   79 19.3
2003-03-19 12:53:35 51°8.06 2°32.987 245   355 19.3
2003-03-19 12:54:35 51°8.062 2°32.986 248.5 0.1 349 19.3
2003-03-19 12:55:34 51°8.062 2°32.965 249.6 1.3 255 19.3
2003-03-19 12:56:35 51°8.059 2°32.929 260 1.3 259 19.4
2003-03-19 12:57:34 51°8.068 2°32.897 270.8 1.4 302 19.7
2003-03-19 12:58:35 51°8.086 2°32.869 280.7 1.5 321 19.5
2003-03-19 12:59:34 51°8.108 2°32.853 291.7 1.6 345 20
2003-03-19 13:00:34 51°8.134 2°32.852 305.7 1.6 5 20.2
2003-03-19 13:01:34 51°8.161 2°32.864 316.9 1.8 18 20.5
2003-03-19 13:02:35 51°8.188 2°32.884 329.2 1.8 27 20.2
2003-03-19 13:03:34 51°8.216 2°32.911 342 2 34 20.4
2003-03-19 13:04:35 51°8.243 2°32.947 355.5 2.2 43 20
2003-03-19 13:05:34 51°8.268 2°32.989 9.4 2.3 49 20.5
2003-03-19 13:06:35 51°8.294 2°33.035 23.8 2.6 49 19.8
2003-03-19 13:07:34 51°8.325 2°33.101 55.6 3.6 57 19.8
2003-03-19 13:08:34 51°8.357 2°33.202 67.2 4.6 63 19.6
2003-03-19 13:09:35 51°8.398 2°33.33 66.7 5.9 64 19.5
2003-03-19 13:10:35 51°8.485 2°33.618 69.6 15.3 65 19.9
2003-03-19 13:11:34 51°8.595 2°33.992 70.1 16 65 20.1
2003-03-19 13:12:34 51°8.709 2°34.375 69.6 15.9 63 20.1
2003-03-19 13:13:34 51°8.824 2°34.751 70.4 15.8 64 19.9
2003-03-19 13:14:34 51°8.921 2°35.132 74.8 15.7 68 19.6
2003-03-19 13:15:34 51°9.017 2°35.517 74 15.7 68 19.5
2003-03-19 13:16:35 51°9.116 2°35.911 74.5 15.6 69 19.3
2003-03-19 13:17:35 51°9.212 2°36.304 74.4 15.7 69 18.8
2003-03-19 13:18:35 51°9.304 2°36.692 74.4 15.8 69 18.4
2003-03-19 13:19:35 51°9.396 2°37.083 74.2 15.8 69 17.4
2003-03-19 13:20:35 51°9.491 2°37.47 74.1 15.7 68 16.6
2003-03-19 13:21:34 51°9.581 2°37.845 74.4 15.6 69 16.3
2003-03-19 13:22:35 51°9.675 2°38.237 74.4 15.6 69 15.9
2003-03-19 13:23:35 51°9.77 2°38.625 74.3 15.6 69 15.5
2003-03-19 13:24:35 51°9.861 2°39.012 74.4 15.6 69 15.2
2003-03-19 13:25:33 51°9.953 2°39.39 74.1 15.6 69 14.9
2003-03-19 13:26:35 51°10.047 2°39.789 74.3 16.1 68 14.7
2003-03-19 13:27:35 51°10.133 2°40.171 74.3 15.5 70 14.7
2003-03-19 13:28:35 51°10.221 2°40.555 74.4 15.5 70 14.6
2003-03-19 13:29:35 51°10.312 2°40.942 74.4 15.3 70 14.6
2003-03-19 13:30:35 51°10.399 2°41.327 74.5 15.5 70 14.6
2003-03-19 13:31:35 51°10.488 2°41.711 74.3 15.5 69 14.6
2003-03-19 13:32:35 51°10.576 2°42.095 74.3 15.5 70 14.5
2003-03-19 13:33:35 51°10.667 2°42.471 70.9 15.3 67 14.5
2003-03-19 13:34:35 51°10.766 2°42.844 71.1 15.3 67 14.6
2003-03-19 13:35:35 51°10.868 2°43.215 71.5 15.3 66 14.7
2003-03-19 13:36:35 51°10.969 2°43.583 71.1 15.1 67 14.9
2003-03-19 13:37:35 51°11.066 2°43.947 71.4 15 67 15
2003-03-19 13:38:34 51°11.16 2°44.309 71.4 15.1 68 15
2003-03-19 13:39:34 51°11.261 2°44.675 71.1 15.1 67 15.2
2003-03-19 13:40:35 51°11.363 2°45.048 69.4 15.1 66 15.2
2003-03-19 13:41:34 51°11.468 2°45.406 69.4 15.2 65 15.4
2003-03-19 13:42:35 51°11.578 2°45.777 69.2 15.2 65 15.5
2003-03-19 13:43:34 51°11.684 2°46.137 68.9 15.3 65 15.6
2003-03-19 13:44:34 51°11.793 2°46.505 68.9 15.4 64 15.7
2003-03-19 13:45:35 51°11.905 2°46.879 68.9 15.3 65 15.6
2003-03-19 13:46:35 51°12.013 2°47.247 69.1 15.4 65 15.7
2003-03-19 13:47:35 51°12.123 2°47.616 68.4 15.4 64 15.5
2003-03-19 13:48:34 51°12.241 2°47.974 67.3 15.6 62 15.4
2003-03-19 13:49:35 51°12.364 2°48.343 67.1 15.6 62 15.3
2003-03-19 13:50:35 51°12.485 2°48.707 67.2 15.6 62 15.1
2003-03-19 13:51:34 51°12.604 2°49.067 67.5 15.6 63 14.9
2003-03-19 13:52:35 51°12.727 2°49.439 67.7 15.5 63 14.8
2003-03-19 13:53:34 51°12.849 2°49.793 64.8 15.5 60 14.6
2003-03-19 13:54:35 51°12.979 2°50.154 65.3 15.5 60 14.5
2003-03-19 13:55:35 51°13.106 2°50.513 65.5 15.6 61 14.3
2003-03-19 13:56:35 51°13.234 2°50.872 65.4 15.5 61 14.2
2003-03-19 13:57:34 51°13.361 2°51.224 65.2 15.6 60 14.1
2003-03-19 13:58:35 51°13.493 2°51.589 65.3 15.6 60 14
2003-03-19 13:59:35 51°13.623 2°51.949 65.6 15.7 60 13.8
2003-03-19 14:00:34 51°13.747 2°52.299 65.3 15.5 60 13.7
2003-03-19 14:01:34 51°13.875 2°52.653 64.5 15.4 59 13.5
2003-03-19 14:02:34 51°14.008 2°52.998 63.1 15.3 58 13.3
2003-03-19 14:03:34 51°14.144 2°53.343 63.2 15.3 58 12.9
2003-03-19 14:04:34 51°14.279 2°53.685 62.9 15.3 58 12.6
2003-03-19 14:05:34 51°14.411 2°54.024 63.6 14.3 59 12.5
2003-03-19 14:06:34 51°14.467 2°54.346 97 11.7 88 13.9
2003-03-19 14:07:34 51°14.441 2°54.579 116.6 7.7 103 13.9
2003-03-19 14:08:33 51°14.424 2°54.762 113.9 6.7 98 13.7
2003-03-19 14:09:33 51°14.395 2°54.937 120.2 7.6 108 13.6
2003-03-19 14:10:34 51°14.328 2°55.127 131.7 8.1 128 13.2
2003-03-19 14:11:33 51°14.245 2°55.285 137.8 7.5 132 12.9
2003-03-19 14:12:33 51°14.149 2°55.393 156.7 6.5 153 12.8
2003-03-19 14:13:34 51°14.053 2°55.463 158.1 6 155 12.7
2003-03-19 14:14:34 51°13.963 2°55.53 158.9 6 155 12.8
2003-03-19 14:15:33 51°13.869 2°55.6 158.2 6.3 154 12.8
2003-03-19 14:16:34 51°13.776 2°55.677 151.6 5.9 149 13